sensor_id;sensor_type;location;lat;lon;timestamp;P1;durP1;ratioP1;P2;durP2;ratioP2
10056;SDS011;5068;51.286;7.518;2023-02-12T00:00:29;26.67;;;13.70;;
10056;SDS011;5068;51.286;7.518;2023-02-12T00:02:02;25.92;;;13.73;;
10056;SDS011;5068;51.286;7.518;2023-02-12T00:03:36;26.27;;;12.82;;
10056;SDS011;5068;51.286;7.518;2023-02-12T00:05:11;28.50;;;13.40;;
10056;SDS011;5068;51.286;7.518;2023-02-12T00:06:46;27.23;;;12.93;;
10056;SDS011;5068;51.286;7.518;2023-02-12T00:08:20;27.02;;;13.52;;
10056;SDS011;5068;51.286;7.518;2023-02-12T00:09:54;24.85;;;13.70;;
10056;SDS011;5068;51.286;7.518;2023-02-12T00:11:28;26.33;;;13.23;;
10056;SDS011;5068;51.286;7.518;2023-02-12T00:13:00;25.30;;;12.73;;
10056;SDS011;5068;51.286;7.518;2023-02-12T00:14:35;29.67;;;14.13;;
10056;SDS011;5068;51.286;7.518;2023-02-12T00:17:44;25.67;;;13.65;;
10056;SDS011;5068;51.286;7.518;2023-02-12T00:19:18;24.00;;;12.98;;
10056;SDS011;5068;51.286;7.518;2023-02-12T00:20:51;26.42;;;13.70;;
10056;SDS011;5068;51.286;7.518;2023-02-12T00:22:23;28.08;;;13.13;;
10056;SDS011;5068;51.286;7.518;2023-02-12T00:23:56;27.55;;;14.15;;
10056;SDS011;5068;51.286;7.518;2023-02-12T00:25:31;26.80;;;13.68;;
10056;SDS011;5068;51.286;7.518;2023-02-12T00:27:04;23.35;;;12.82;;
10056;SDS011;5068;51.286;7.518;2023-02-12T00:28:38;28.73;;;12.18;;
10056;SDS011;5068;51.286;7.518;2023-02-12T00:30:12;26.30;;;12.02;;
10056;SDS011;5068;51.286;7.518;2023-02-12T00:31:45;25.63;;;13.10;;
10056;SDS011;5068;51.286;7.518;2023-02-12T00:33:19;25.63;;;12.65;;
10056;SDS011;5068;51.286;7.518;2023-02-12T00:34:52;27.13;;;13.65;;
10056;SDS011;5068;51.286;7.518;2023-02-12T00:36:26;26.85;;;13.00;;
10056;SDS011;5068;51.286;7.518;2023-02-12T00:38:02;24.17;;;12.63;;
10056;SDS011;5068;51.286;7.518;2023-02-12T00:39:36;25.83;;;13.20;;
10056;SDS011;5068;51.286;7.518;2023-02-12T00:41:10;26.35;;;13.00;;
10056;SDS011;5068;51.286;7.518;2023-02-12T00:44:17;23.67;;;11.85;;
10056;SDS011;5068;51.286;7.518;2023-02-12T00:45:50;25.90;;;12.73;;
10056;SDS011;5068;51.286;7.518;2023-02-12T00:47:24;22.25;;;11.90;;
10056;SDS011;5068;51.286;7.518;2023-02-12T00:48:57;26.05;;;11.90;;
10056;SDS011;5068;51.286;7.518;2023-02-12T00:50:30;29.25;;;14.45;;
10056;SDS011;5068;51.286;7.518;2023-02-12T00:52:04;24.73;;;12.90;;
10056;SDS011;5068;51.286;7.518;2023-02-12T00:53:37;26.15;;;13.40;;
10056;SDS011;5068;51.286;7.518;2023-02-12T00:55:11;25.08;;;12.63;;
10056;SDS011;5068;51.286;7.518;2023-02-12T00:56:45;24.38;;;12.68;;
10056;SDS011;5068;51.286;7.518;2023-02-12T00:58:18;24.70;;;11.43;;
10056;SDS011;5068;51.286;7.518;2023-02-12T00:59:51;26.48;;;13.55;;
10056;SDS011;5068;51.286;7.518;2023-02-12T01:01:24;24.42;;;12.63;;
10056;SDS011;5068;51.286;7.518;2023-02-12T01:02:57;23.10;;;11.98;;
10056;SDS011;5068;51.286;7.518;2023-02-12T01:04:30;22.63;;;11.80;;
10056;SDS011;5068;51.286;7.518;2023-02-12T01:06:03;27.25;;;13.38;;
10056;SDS011;5068;51.286;7.518;2023-02-12T01:07:37;25.08;;;13.45;;
10056;SDS011;5068;51.286;7.518;2023-02-12T01:09:11;25.13;;;12.23;;
10056;SDS011;5068;51.286;7.518;2023-02-12T01:10:44;22.02;;;11.77;;
10056;SDS011;5068;51.286;7.518;2023-02-12T01:12:29;24.95;;;12.02;;
10056;SDS011;5068;51.286;7.518;2023-02-12T01:14:02;23.35;;;11.48;;
10056;SDS011;5068;51.286;7.518;2023-02-12T01:15:36;24.17;;;12.35;;
10056;SDS011;5068;51.286;7.518;2023-02-12T01:17:10;26.10;;;11.90;;
10056;SDS011;5068;51.286;7.518;2023-02-12T01:18:43;22.27;;;11.20;;
10056;SDS011;5068;51.286;7.518;2023-02-12T01:20:18;21.00;;;11.00;;
10056;SDS011;5068;51.286;7.518;2023-02-12T01:21:53;25.08;;;12.43;;
10056;SDS011;5068;51.286;7.518;2023-02-12T01:23:27;25.75;;;12.57;;
10056;SDS011;5068;51.286;7.518;2023-02-12T01:24:59;23.20;;;12.60;;
10056;SDS011;5068;51.286;7.518;2023-02-12T01:26:32;23.90;;;11.98;;
10056;SDS011;5068;51.286;7.518;2023-02-12T01:28:07;26.27;;;12.68;;
10056;SDS011;5068;51.286;7.518;2023-02-12T01:29:41;24.15;;;11.65;;
10056;SDS011;5068;51.286;7.518;2023-02-12T01:31:16;26.90;;;12.43;;
10056;SDS011;5068;51.286;7.518;2023-02-12T01:32:53;21.95;;;11.45;;
10056;SDS011;5068;51.286;7.518;2023-02-12T01:34:27;22.50;;;10.65;;
10056;SDS011;5068;51.286;7.518;2023-02-12T01:36:02;22.23;;;11.55;;
10056;SDS011;5068;51.286;7.518;2023-02-12T01:37:35;25.58;;;12.75;;
10056;SDS011;5068;51.286;7.518;2023-02-12T01:39:09;25.30;;;11.77;;
10056;SDS011;5068;51.286;7.518;2023-02-12T01:40:43;23.98;;;11.45;;
10056;SDS011;5068;51.286;7.518;2023-02-12T01:42:16;25.30;;;12.55;;
10056;SDS011;5068;51.286;7.518;2023-02-12T01:44:08;26.73;;;12.63;;
10056;SDS011;5068;51.286;7.518;2023-02-12T01:45:50;23.08;;;11.35;;
10056;SDS011;5068;51.286;7.518;2023-02-12T01:47:26;24.23;;;12.45;;
10056;SDS011;5068;51.286;7.518;2023-02-12T01:48:59;24.98;;;13.02;;
10056;SDS011;5068;51.286;7.518;2023-02-12T01:52:09;22.23;;;11.05;;
10056;SDS011;5068;51.286;7.518;2023-02-12T01:53:49;20.55;;;11.18;;
10056;SDS011;5068;51.286;7.518;2023-02-12T01:55:25;19.52;;;11.45;;
10056;SDS011;5068;51.286;7.518;2023-02-12T01:56:59;22.70;;;11.05;;
10056;SDS011;5068;51.286;7.518;2023-02-12T01:58:36;21.67;;;12.32;;
10056;SDS011;5068;51.286;7.518;2023-02-12T02:00:17;24.77;;;11.73;;
10056;SDS011;5068;51.286;7.518;2023-02-12T02:01:55;24.17;;;11.23;;
10056;SDS011;5068;51.286;7.518;2023-02-12T02:03:29;21.42;;;10.90;;
10056;SDS011;5068;51.286;7.518;2023-02-12T02:05:02;22.50;;;11.45;;
10056;SDS011;5068;51.286;7.518;2023-02-12T02:06:38;20.08;;;10.68;;
10056;SDS011;5068;51.286;7.518;2023-02-12T02:08:20;21.13;;;11.38;;
10056;SDS011;5068;51.286;7.518;2023-02-12T02:09:54;23.88;;;12.93;;
10056;SDS011;5068;51.286;7.518;2023-02-12T02:11:32;22.50;;;11.50;;
10056;SDS011;5068;51.286;7.518;2023-02-12T02:13:23;22.05;;;10.93;;
10056;SDS011;5068;51.286;7.518;2023-02-12T02:15:16;21.23;;;11.05;;
10056;SDS011;5068;51.286;7.518;2023-02-12T02:18:34;17.40;;;10.30;;
10056;SDS011;5068;51.286;7.518;2023-02-12T02:27:38;20.42;;;10.75;;
10056;SDS011;5068;51.286;7.518;2023-02-12T02:29:19;22.58;;;10.18;;
10056;SDS011;5068;51.286;7.518;2023-02-12T02:31:19;21.17;;;11.57;;
10056;SDS011;5068;51.286;7.518;2023-02-12T02:33:01;22.55;;;11.32;;
10056;SDS011;5068;51.286;7.518;2023-02-12T02:34:57;22.38;;;11.70;;
10056;SDS011;5068;51.286;7.518;2023-02-12T02:36:43;22.60;;;11.88;;
10056;SDS011;5068;51.286;7.518;2023-02-12T02:38:32;22.60;;;12.05;;
10056;SDS011;5068;51.286;7.518;2023-02-12T02:40:15;23.52;;;13.13;;
10056;SDS011;5068;51.286;7.518;2023-02-12T02:41:54;24.60;;;12.38;;
10056;SDS011;5068;51.286;7.518;2023-02-12T02:43:37;21.67;;;11.95;;
10056;SDS011;5068;51.286;7.518;2023-02-12T02:45:17;24.05;;;12.32;;
10056;SDS011;5068;51.286;7.518;2023-02-12T02:46:59;22.33;;;11.18;;
10056;SDS011;5068;51.286;7.518;2023-02-12T02:48:40;21.98;;;10.95;;
10056;SDS011;5068;51.286;7.518;2023-02-12T02:50:20;24.20;;;11.82;;
10056;SDS011;5068;51.286;7.518;2023-02-12T02:52:00;23.05;;;11.70;;
10056;SDS011;5068;51.286;7.518;2023-02-12T02:53:41;23.83;;;11.07;;
10056;SDS011;5068;51.286;7.518;2023-02-12T02:55:21;23.08;;;12.25;;
10056;SDS011;5068;51.286;7.518;2023-02-12T02:57:13;22.88;;;12.23;;
10056;SDS011;5068;51.286;7.518;2023-02-12T02:58:52;22.30;;;11.82;;
10056;SDS011;5068;51.286;7.518;2023-02-12T03:00:30;24.98;;;11.48;;
10056;SDS011;5068;51.286;7.518;2023-02-12T03:02:12;21.42;;;11.20;;
10056;SDS011;5068;51.286;7.518;2023-02-12T03:03:54;23.17;;;10.90;;
10056;SDS011;5068;51.286;7.518;2023-02-12T03:05:36;23.00;;;11.63;;
10056;SDS011;5068;51.286;7.518;2023-02-12T03:07:15;22.02;;;11.68;;
10056;SDS011;5068;51.286;7.518;2023-02-12T03:08:55;19.83;;;11.02;;
10056;SDS011;5068;51.286;7.518;2023-02-12T03:10:33;22.63;;;11.63;;
10056;SDS011;5068;51.286;7.518;2023-02-12T03:12:14;21.30;;;12.25;;
10056;SDS011;5068;51.286;7.518;2023-02-12T03:13:54;22.75;;;11.85;;
10056;SDS011;5068;51.286;7.518;2023-02-12T03:15:34;24.15;;;11.95;;
10056;SDS011;5068;51.286;7.518;2023-02-12T03:17:16;21.65;;;11.55;;
10056;SDS011;5068;51.286;7.518;2023-02-12T03:20:37;20.15;;;10.13;;
10056;SDS011;5068;51.286;7.518;2023-02-12T03:22:19;20.95;;;11.05;;
10056;SDS011;5068;51.286;7.518;2023-02-12T03:24:04;20.27;;;10.73;;
10056;SDS011;5068;51.286;7.518;2023-02-12T03:25:48;23.73;;;11.43;;
10056;SDS011;5068;51.286;7.518;2023-02-12T03:27:29;22.05;;;11.82;;
10056;SDS011;5068;51.286;7.518;2023-02-12T03:29:09;23.33;;;11.80;;
10056;SDS011;5068;51.286;7.518;2023-02-12T03:30:43;21.80;;;10.90;;
10056;SDS011;5068;51.286;7.518;2023-02-12T03:32:26;22.08;;;11.75;;
10056;SDS011;5068;51.286;7.518;2023-02-12T03:34:10;21.77;;;12.20;;
10056;SDS011;5068;51.286;7.518;2023-02-12T03:35:56;18.90;;;9.63;;
10056;SDS011;5068;51.286;7.518;2023-02-12T03:37:37;20.33;;;10.18;;
10056;SDS011;5068;51.286;7.518;2023-02-12T03:39:19;21.42;;;11.55;;
10056;SDS011;5068;51.286;7.518;2023-02-12T03:41:05;23.30;;;11.30;;
10056;SDS011;5068;51.286;7.518;2023-02-12T03:42:46;23.40;;;11.60;;
10056;SDS011;5068;51.286;7.518;2023-02-12T03:44:35;20.83;;;10.60;;
10056;SDS011;5068;51.286;7.518;2023-02-12T03:46:21;22.48;;;10.85;;
10056;SDS011;5068;51.286;7.518;2023-02-12T03:48:01;26.77;;;12.50;;
10056;SDS011;5068;51.286;7.518;2023-02-12T03:49:45;22.13;;;11.98;;
10056;SDS011;5068;51.286;7.518;2023-02-12T03:51:32;19.77;;;10.70;;
10056;SDS011;5068;51.286;7.518;2023-02-12T03:53:09;19.70;;;10.82;;
10056;SDS011;5068;51.286;7.518;2023-02-12T03:54:43;21.05;;;10.32;;
10056;SDS011;5068;51.286;7.518;2023-02-12T03:56:18;21.48;;;10.38;;
10056;SDS011;5068;51.286;7.518;2023-02-12T03:57:58;20.02;;;10.63;;
10056;SDS011;5068;51.286;7.518;2023-02-12T03:59:35;22.45;;;11.13;;
10056;SDS011;5068;51.286;7.518;2023-02-12T04:01:12;21.17;;;10.98;;
10056;SDS011;5068;51.286;7.518;2023-02-12T04:02:46;25.15;;;12.88;;
10056;SDS011;5068;51.286;7.518;2023-02-12T04:04:21;22.08;;;11.52;;
10056;SDS011;5068;51.286;7.518;2023-02-12T04:05:56;22.73;;;11.93;;
10056;SDS011;5068;51.286;7.518;2023-02-12T04:07:30;22.52;;;11.40;;
10056;SDS011;5068;51.286;7.518;2023-02-12T04:09:07;21.70;;;10.88;;
10056;SDS011;5068;51.286;7.518;2023-02-12T04:10:47;23.45;;;11.20;;
10056;SDS011;5068;51.286;7.518;2023-02-12T04:12:38;23.20;;;10.70;;
10056;SDS011;5068;51.286;7.518;2023-02-12T04:14:19;20.77;;;10.18;;
10056;SDS011;5068;51.286;7.518;2023-02-12T04:16:04;20.95;;;10.57;;
10056;SDS011;5068;51.286;7.518;2023-02-12T04:17:54;20.10;;;9.90;;
10056;SDS011;5068;51.286;7.518;2023-02-12T04:19:39;21.90;;;11.77;;
10056;SDS011;5068;51.286;7.518;2023-02-12T04:21:31;19.35;;;10.45;;
10056;SDS011;5068;51.286;7.518;2023-02-12T04:23:21;19.33;;;9.85;;
10056;SDS011;5068;51.286;7.518;2023-02-12T04:25:21;25.05;;;10.90;;
10056;SDS011;5068;51.286;7.518;2023-02-12T04:27:14;20.85;;;11.52;;
10056;SDS011;5068;51.286;7.518;2023-02-12T04:28:57;19.70;;;10.55;;
10056;SDS011;5068;51.286;7.518;2023-02-12T04:30:44;21.95;;;11.50;;
10056;SDS011;5068;51.286;7.518;2023-02-12T04:32:29;20.75;;;10.57;;
10056;SDS011;5068;51.286;7.518;2023-02-12T04:34:13;20.77;;;10.02;;
10056;SDS011;5068;51.286;7.518;2023-02-12T04:35:54;23.48;;;11.80;;
10056;SDS011;5068;51.286;7.518;2023-02-12T04:37:34;21.55;;;11.40;;
10056;SDS011;5068;51.286;7.518;2023-02-12T04:39:15;20.67;;;10.88;;
10056;SDS011;5068;51.286;7.518;2023-02-12T04:40:53;21.10;;;10.95;;
10056;SDS011;5068;51.286;7.518;2023-02-12T04:42:27;22.73;;;11.32;;
10056;SDS011;5068;51.286;7.518;2023-02-12T04:44:12;23.75;;;11.32;;
10056;SDS011;5068;51.286;7.518;2023-02-12T04:45:47;20.73;;;9.98;;
10056;SDS011;5068;51.286;7.518;2023-02-12T04:47:20;21.17;;;9.98;;
10056;SDS011;5068;51.286;7.518;2023-02-12T04:48:54;19.10;;;9.85;;
10056;SDS011;5068;51.286;7.518;2023-02-12T04:50:33;22.20;;;11.30;;
10056;SDS011;5068;51.286;7.518;2023-02-12T04:52:13;20.33;;;10.55;;
10056;SDS011;5068;51.286;7.518;2023-02-12T04:53:46;20.52;;;10.32;;
10056;SDS011;5068;51.286;7.518;2023-02-12T04:55:22;23.83;;;10.85;;
10056;SDS011;5068;51.286;7.518;2023-02-12T04:56:54;20.17;;;10.07;;
10056;SDS011;5068;51.286;7.518;2023-02-12T04:58:28;21.13;;;10.02;;
10056;SDS011;5068;51.286;7.518;2023-02-12T05:00:01;19.90;;;10.20;;
10056;SDS011;5068;51.286;7.518;2023-02-12T05:01:40;18.30;;;9.55;;
10056;SDS011;5068;51.286;7.518;2023-02-12T05:03:14;21.02;;;10.40;;
10056;SDS011;5068;51.286;7.518;2023-02-12T05:04:47;22.75;;;9.57;;
10056;SDS011;5068;51.286;7.518;2023-02-12T05:06:21;22.90;;;11.70;;
10056;SDS011;5068;51.286;7.518;2023-02-12T05:07:55;21.83;;;10.65;;
10056;SDS011;5068;51.286;7.518;2023-02-12T05:09:28;23.13;;;10.30;;
10056;SDS011;5068;51.286;7.518;2023-02-12T05:11:02;19.65;;;10.05;;
10056;SDS011;5068;51.286;7.518;2023-02-12T05:12:36;21.60;;;10.23;;
10056;SDS011;5068;51.286;7.518;2023-02-12T05:14:10;19.80;;;10.20;;
10056;SDS011;5068;51.286;7.518;2023-02-12T05:15:43;20.17;;;9.50;;
10056;SDS011;5068;51.286;7.518;2023-02-12T05:17:17;20.50;;;9.68;;
10056;SDS011;5068;51.286;7.518;2023-02-12T05:18:52;21.42;;;10.63;;
10056;SDS011;5068;51.286;7.518;2023-02-12T05:20:26;20.20;;;9.68;;
10056;SDS011;5068;51.286;7.518;2023-02-12T05:21:59;19.23;;;9.45;;
10056;SDS011;5068;51.286;7.518;2023-02-12T05:23:34;18.40;;;9.55;;
10056;SDS011;5068;51.286;7.518;2023-02-12T05:25:10;18.42;;;9.18;;
10056;SDS011;5068;51.286;7.518;2023-02-12T05:26:43;17.48;;;9.25;;
10056;SDS011;5068;51.286;7.518;2023-02-12T05:28:17;21.55;;;10.73;;
10056;SDS011;5068;51.286;7.518;2023-02-12T05:29:50;21.10;;;9.73;;
10056;SDS011;5068;51.286;7.518;2023-02-12T05:31:23;18.80;;;9.57;;
10056;SDS011;5068;51.286;7.518;2023-02-12T05:32:55;21.98;;;11.18;;
10056;SDS011;5068;51.286;7.518;2023-02-12T05:34:30;22.25;;;11.38;;
10056;SDS011;5068;51.286;7.518;2023-02-12T05:36:04;21.85;;;11.32;;
10056;SDS011;5068;51.286;7.518;2023-02-12T05:37:40;22.60;;;10.60;;
10056;SDS011;5068;51.286;7.518;2023-02-12T05:39:15;23.25;;;10.55;;
10056;SDS011;5068;51.286;7.518;2023-02-12T05:40:48;21.77;;;11.18;;
10056;SDS011;5068;51.286;7.518;2023-02-12T05:42:20;21.10;;;10.05;;
10056;SDS011;5068;51.286;7.518;2023-02-12T05:43:53;22.10;;;11.02;;
10056;SDS011;5068;51.286;7.518;2023-02-12T05:45:26;23.80;;;11.07;;
10056;SDS011;5068;51.286;7.518;2023-02-12T05:47:00;21.75;;;10.55;;
10056;SDS011;5068;51.286;7.518;2023-02-12T05:48:33;23.27;;;10.63;;
10056;SDS011;5068;51.286;7.518;2023-02-12T05:50:07;23.23;;;11.32;;
10056;SDS011;5068;51.286;7.518;2023-02-12T05:51:42;22.23;;;10.88;;
10056;SDS011;5068;51.286;7.518;2023-02-12T05:53:15;21.55;;;10.48;;
10056;SDS011;5068;51.286;7.518;2023-02-12T05:54:49;22.70;;;10.65;;
10056;SDS011;5068;51.286;7.518;2023-02-12T05:56:23;21.60;;;10.45;;
10056;SDS011;5068;51.286;7.518;2023-02-12T05:57:59;24.17;;;11.43;;
10056;SDS011;5068;51.286;7.518;2023-02-12T05:59:32;22.25;;;11.15;;
10056;SDS011;5068;51.286;7.518;2023-02-12T06:01:08;18.65;;;9.70;;
10056;SDS011;5068;51.286;7.518;2023-02-12T06:02:44;19.60;;;10.23;;
10056;SDS011;5068;51.286;7.518;2023-02-12T06:04:20;21.02;;;9.73;;
10056;SDS011;5068;51.286;7.518;2023-02-12T06:05:55;19.92;;;9.82;;
10056;SDS011;5068;51.286;7.518;2023-02-12T06:07:29;18.25;;;9.90;;
10056;SDS011;5068;51.286;7.518;2023-02-12T06:09:02;20.40;;;9.75;;
10056;SDS011;5068;51.286;7.518;2023-02-12T06:10:37;22.92;;;9.77;;
10056;SDS011;5068;51.286;7.518;2023-02-12T06:12:10;21.10;;;9.65;;
10056;SDS011;5068;51.286;7.518;2023-02-12T06:13:43;19.95;;;9.75;;
10056;SDS011;5068;51.286;7.518;2023-02-12T06:15:16;20.73;;;10.38;;
10056;SDS011;5068;51.286;7.518;2023-02-12T06:16:50;21.75;;;10.07;;
10056;SDS011;5068;51.286;7.518;2023-02-12T06:18:24;18.00;;;9.60;;
10056;SDS011;5068;51.286;7.518;2023-02-12T06:19:56;18.63;;;9.15;;
10056;SDS011;5068;51.286;7.518;2023-02-12T06:21:30;17.08;;;8.57;;
10056;SDS011;5068;51.286;7.518;2023-02-12T06:23:04;18.52;;;9.20;;
10056;SDS011;5068;51.286;7.518;2023-02-12T06:24:38;21.00;;;9.88;;
10056;SDS011;5068;51.286;7.518;2023-02-12T06:26:12;18.63;;;9.48;;
10056;SDS011;5068;51.286;7.518;2023-02-12T06:27:46;21.15;;;9.57;;
10056;SDS011;5068;51.286;7.518;2023-02-12T06:29:19;20.70;;;10.77;;
10056;SDS011;5068;51.286;7.518;2023-02-12T06:30:53;19.65;;;9.68;;
10056;SDS011;5068;51.286;7.518;2023-02-12T06:32:27;18.25;;;9.10;;
10056;SDS011;5068;51.286;7.518;2023-02-12T06:34:00;17.90;;;8.98;;
10056;SDS011;5068;51.286;7.518;2023-02-12T06:35:37;21.38;;;9.77;;
10056;SDS011;5068;51.286;7.518;2023-02-12T06:37:11;20.75;;;10.13;;
10056;SDS011;5068;51.286;7.518;2023-02-12T06:38:44;18.25;;;8.73;;
10056;SDS011;5068;51.286;7.518;2023-02-12T06:40:17;20.35;;;9.52;;
10056;SDS011;5068;51.286;7.518;2023-02-12T06:41:52;19.65;;;10.25;;
10056;SDS011;5068;51.286;7.518;2023-02-12T06:43:26;18.80;;;9.30;;
10056;SDS011;5068;51.286;7.518;2023-02-12T06:45:00;18.60;;;9.00;;
10056;SDS011;5068;51.286;7.518;2023-02-12T06:46:34;18.35;;;8.98;;
10056;SDS011;5068;51.286;7.518;2023-02-12T06:48:07;18.70;;;8.32;;
10056;SDS011;5068;51.286;7.518;2023-02-12T06:49:41;16.42;;;8.57;;
10056;SDS011;5068;51.286;7.518;2023-02-12T06:51:15;18.35;;;9.18;;
10056;SDS011;5068;51.286;7.518;2023-02-12T06:52:52;19.58;;;9.55;;
10056;SDS011;5068;51.286;7.518;2023-02-12T06:54:25;17.10;;;8.60;;
10056;SDS011;5068;51.286;7.518;2023-02-12T06:55:59;22.90;;;9.07;;
10056;SDS011;5068;51.286;7.518;2023-02-12T06:57:34;16.67;;;8.20;;
10056;SDS011;5068;51.286;7.518;2023-02-12T06:59:09;18.15;;;8.90;;
10056;SDS011;5068;51.286;7.518;2023-02-12T07:00:46;20.88;;;8.75;;
10056;SDS011;5068;51.286;7.518;2023-02-12T07:02:19;16.15;;;8.85;;
10056;SDS011;5068;51.286;7.518;2023-02-12T07:03:55;17.38;;;9.30;;
10056;SDS011;5068;51.286;7.518;2023-02-12T07:05:31;18.08;;;9.52;;
10056;SDS011;5068;51.286;7.518;2023-02-12T07:07:08;17.55;;;8.40;;
10056;SDS011;5068;51.286;7.518;2023-02-12T07:08:41;15.63;;;7.85;;
10056;SDS011;5068;51.286;7.518;2023-02-12T07:10:15;15.38;;;8.57;;
10056;SDS011;5068;51.286;7.518;2023-02-12T07:11:48;15.35;;;7.85;;
10056;SDS011;5068;51.286;7.518;2023-02-12T07:13:23;17.50;;;8.43;;
10056;SDS011;5068;51.286;7.518;2023-02-12T07:14:56;15.63;;;8.63;;
10056;SDS011;5068;51.286;7.518;2023-02-12T07:16:29;16.95;;;9.07;;
10056;SDS011;5068;51.286;7.518;2023-02-12T07:18:03;17.48;;;9.00;;
10056;SDS011;5068;51.286;7.518;2023-02-12T07:19:37;18.88;;;8.48;;
10056;SDS011;5068;51.286;7.518;2023-02-12T07:21:11;17.40;;;8.50;;
10056;SDS011;5068;51.286;7.518;2023-02-12T07:22:46;14.63;;;7.85;;
10056;SDS011;5068;51.286;7.518;2023-02-12T07:24:19;17.17;;;8.23;;
10056;SDS011;5068;51.286;7.518;2023-02-12T07:25:53;17.00;;;8.57;;
10056;SDS011;5068;51.286;7.518;2023-02-12T07:27:28;16.48;;;8.45;;
10056;SDS011;5068;51.286;7.518;2023-02-12T07:29:03;16.95;;;8.93;;
10056;SDS011;5068;51.286;7.518;2023-02-12T07:30:36;15.93;;;8.32;;
10056;SDS011;5068;51.286;7.518;2023-02-12T07:32:13;17.10;;;8.27;;
10056;SDS011;5068;51.286;7.518;2023-02-12T07:33:46;17.35;;;8.52;;
10056;SDS011;5068;51.286;7.518;2023-02-12T07:35:20;15.10;;;8.20;;
10056;SDS011;5068;51.286;7.518;2023-02-12T07:36:53;16.70;;;8.32;;
10056;SDS011;5068;51.286;7.518;2023-02-12T07:38:27;16.77;;;8.15;;
10056;SDS011;5068;51.286;7.518;2023-02-12T07:39:59;16.67;;;9.00;;
10056;SDS011;5068;51.286;7.518;2023-02-12T07:41:33;15.02;;;8.18;;
10056;SDS011;5068;51.286;7.518;2023-02-12T07:43:07;13.27;;;7.93;;
10056;SDS011;5068;51.286;7.518;2023-02-12T07:44:44;16.42;;;8.38;;
10056;SDS011;5068;51.286;7.518;2023-02-12T07:46:18;19.08;;;9.77;;
10056;SDS011;5068;51.286;7.518;2023-02-12T07:47:56;17.88;;;8.75;;
10056;SDS011;5068;51.286;7.518;2023-02-12T07:49:30;16.23;;;7.72;;
10056;SDS011;5068;51.286;7.518;2023-02-12T07:51:04;15.00;;;7.90;;
10056;SDS011;5068;51.286;7.518;2023-02-12T07:52:39;16.75;;;8.15;;
10056;SDS011;5068;51.286;7.518;2023-02-12T07:54:13;16.85;;;9.00;;
10056;SDS011;5068;51.286;7.518;2023-02-12T07:55:47;16.98;;;9.05;;
10056;SDS011;5068;51.286;7.518;2023-02-12T07:57:20;15.45;;;8.48;;
10056;SDS011;5068;51.286;7.518;2023-02-12T07:58:53;17.25;;;8.48;;
10056;SDS011;5068;51.286;7.518;2023-02-12T08:00:28;19.20;;;9.82;;
10056;SDS011;5068;51.286;7.518;2023-02-12T08:02:01;18.77;;;8.85;;
10056;SDS011;5068;51.286;7.518;2023-02-12T08:03:35;14.60;;;8.07;;
10056;SDS011;5068;51.286;7.518;2023-02-12T08:05:08;17.05;;;9.30;;
10056;SDS011;5068;51.286;7.518;2023-02-12T08:06:42;18.25;;;9.77;;
10056;SDS011;5068;51.286;7.518;2023-02-12T08:08:17;17.50;;;8.57;;
10056;SDS011;5068;51.286;7.518;2023-02-12T08:09:50;16.60;;;8.30;;
10056;SDS011;5068;51.286;7.518;2023-02-12T08:11:24;17.50;;;9.10;;
10056;SDS011;5068;51.286;7.518;2023-02-12T08:12:58;22.88;;;11.18;;
10056;SDS011;5068;51.286;7.518;2023-02-12T08:14:31;24.60;;;12.38;;
10056;SDS011;5068;51.286;7.518;2023-02-12T08:16:06;25.63;;;13.45;;
10056;SDS011;5068;51.286;7.518;2023-02-12T08:17:41;28.67;;;13.48;;
10056;SDS011;5068;51.286;7.518;2023-02-12T08:19:14;31.65;;;15.77;;
10056;SDS011;5068;51.286;7.518;2023-02-12T08:20:53;26.50;;;14.25;;
10056;SDS011;5068;51.286;7.518;2023-02-12T08:22:26;30.95;;;14.45;;
10056;SDS011;5068;51.286;7.518;2023-02-12T08:23:59;27.30;;;14.07;;
10056;SDS011;5068;51.286;7.518;2023-02-12T08:25:33;29.35;;;14.93;;
10056;SDS011;5068;51.286;7.518;2023-02-12T08:27:06;27.70;;;14.68;;
10056;SDS011;5068;51.286;7.518;2023-02-12T08:28:40;29.33;;;15.55;;
10056;SDS011;5068;51.286;7.518;2023-02-12T08:30:15;28.55;;;14.40;;
10056;SDS011;5068;51.286;7.518;2023-02-12T08:31:54;33.58;;;15.60;;
10056;SDS011;5068;51.286;7.518;2023-02-12T08:33:29;29.65;;;14.52;;
10056;SDS011;5068;51.286;7.518;2023-02-12T08:35:02;33.70;;;16.98;;
10056;SDS011;5068;51.286;7.518;2023-02-12T08:36:36;30.33;;;16.05;;
10056;SDS011;5068;51.286;7.518;2023-02-12T08:38:11;29.30;;;14.63;;
10056;SDS011;5068;51.286;7.518;2023-02-12T08:39:44;28.85;;;14.30;;
10056;SDS011;5068;51.286;7.518;2023-02-12T08:41:18;29.13;;;15.38;;
10056;SDS011;5068;51.286;7.518;2023-02-12T08:44:25;27.42;;;12.55;;
10056;SDS011;5068;51.286;7.518;2023-02-12T08:46:03;30.33;;;13.88;;
10056;SDS011;5068;51.286;7.518;2023-02-12T08:47:40;26.90;;;13.43;;
10056;SDS011;5068;51.286;7.518;2023-02-12T08:50:48;25.15;;;12.88;;
10056;SDS011;5068;51.286;7.518;2023-02-12T08:52:21;29.27;;;13.75;;
10056;SDS011;5068;51.286;7.518;2023-02-12T08:53:55;29.35;;;13.70;;
10056;SDS011;5068;51.286;7.518;2023-02-12T08:55:31;29.58;;;13.23;;
10056;SDS011;5068;51.286;7.518;2023-02-12T08:57:04;29.95;;;15.05;;
10056;SDS011;5068;51.286;7.518;2023-02-12T08:58:37;26.85;;;15.13;;
10056;SDS011;5068;51.286;7.518;2023-02-12T09:00:12;29.35;;;14.35;;
10056;SDS011;5068;51.286;7.518;2023-02-12T09:01:48;28.27;;;14.57;;
10056;SDS011;5068;51.286;7.518;2023-02-12T09:03:24;28.50;;;15.70;;
10056;SDS011;5068;51.286;7.518;2023-02-12T09:04:58;30.25;;;15.52;;
10056;SDS011;5068;51.286;7.518;2023-02-12T09:06:31;31.90;;;14.25;;
10056;SDS011;5068;51.286;7.518;2023-02-12T09:08:07;30.40;;;13.65;;
10056;SDS011;5068;51.286;7.518;2023-02-12T09:09:40;25.38;;;13.18;;
10056;SDS011;5068;51.286;7.518;2023-02-12T09:11:15;28.38;;;13.82;;
10056;SDS011;5068;51.286;7.518;2023-02-12T09:12:50;29.23;;;14.23;;
10056;SDS011;5068;51.286;7.518;2023-02-12T09:14:24;33.08;;;15.10;;
10056;SDS011;5068;51.286;7.518;2023-02-12T09:16:00;28.40;;;13.75;;
10056;SDS011;5068;51.286;7.518;2023-02-12T09:17:35;26.63;;;14.70;;
10056;SDS011;5068;51.286;7.518;2023-02-12T09:19:11;28.63;;;15.35;;
10056;SDS011;5068;51.286;7.518;2023-02-12T09:20:46;24.27;;;12.95;;
10056;SDS011;5068;51.286;7.518;2023-02-12T09:22:22;29.20;;;14.25;;
10056;SDS011;5068;51.286;7.518;2023-02-12T09:23:56;27.45;;;13.45;;
10056;SDS011;5068;51.286;7.518;2023-02-12T09:25:29;27.25;;;12.68;;
10056;SDS011;5068;51.286;7.518;2023-02-12T09:27:04;25.35;;;13.32;;
10056;SDS011;5068;51.286;7.518;2023-02-12T09:28:38;24.63;;;13.63;;
10056;SDS011;5068;51.286;7.518;2023-02-12T09:30:11;26.05;;;12.95;;
10056;SDS011;5068;51.286;7.518;2023-02-12T09:31:46;25.10;;;14.20;;
10056;SDS011;5068;51.286;7.518;2023-02-12T09:33:19;21.98;;;12.15;;
10056;SDS011;5068;51.286;7.518;2023-02-12T09:34:55;29.52;;;14.23;;
10056;SDS011;5068;51.286;7.518;2023-02-12T09:36:28;24.42;;;14.07;;
10056;SDS011;5068;51.286;7.518;2023-02-12T09:38:03;22.92;;;12.18;;
10056;SDS011;5068;51.286;7.518;2023-02-12T09:39:38;24.73;;;12.32;;
10056;SDS011;5068;51.286;7.518;2023-02-12T09:41:24;23.83;;;12.90;;
10056;SDS011;5068;51.286;7.518;2023-02-12T09:43:24;21.38;;;11.55;;
10056;SDS011;5068;51.286;7.518;2023-02-12T09:45:15;25.05;;;13.23;;
10056;SDS011;5068;51.286;7.518;2023-02-12T09:46:54;22.88;;;11.43;;
10056;SDS011;5068;51.286;7.518;2023-02-12T09:48:42;26.13;;;11.65;;
10056;SDS011;5068;51.286;7.518;2023-02-12T09:50:33;22.42;;;11.52;;
10056;SDS011;5068;51.286;7.518;2023-02-12T09:52:23;21.25;;;10.98;;
10056;SDS011;5068;51.286;7.518;2023-02-12T09:54:02;23.88;;;12.25;;